createdAt,value
2019-01-19T00:00:18.164Z,4.12
2019-01-19T00:01:18.149Z,4.11
2019-01-19T00:02:18.132Z,4.05
2019-01-19T00:03:18.115Z,4
2019-01-19T00:04:18.102Z,3.93
2019-01-19T00:05:18.087Z,3.96
2019-01-19T00:06:18.070Z,3.96
2019-01-19T00:07:18.055Z,3.88
2019-01-19T00:08:18.036Z,3.86
2019-01-19T00:09:18.023Z,3.91
2019-01-19T00:10:18.011Z,3.9
2019-01-19T00:11:17.995Z,3.83
2019-01-19T00:12:17.982Z,3.84
2019-01-19T00:13:17.969Z,3.73
2019-01-19T00:14:17.949Z,3.76
2019-01-19T00:15:17.938Z,3.75
2019-01-19T00:16:17.918Z,3.78
2019-01-19T00:17:17.902Z,3.75
2019-01-19T00:18:17.890Z,3.72
2019-01-19T00:19:17.874Z,3.69
2019-01-19T00:20:17.858Z,3.73
2019-01-19T00:21:17.840Z,3.72
2019-01-19T00:22:17.828Z,3.61
2019-01-19T00:23:17.821Z,3.7
2019-01-19T00:24:17.799Z,3.66
2019-01-19T00:25:17.781Z,3.6
2019-01-19T00:26:17.765Z,3.58
2019-01-19T00:27:17.751Z,3.52
2019-01-19T00:28:17.732Z,3.61
2019-01-19T00:29:17.717Z,3.5
2019-01-19T00:30:17.703Z,3.36
2019-01-19T00:31:17.696Z,3.36
2019-01-19T00:32:17.673Z,3.26
2019-01-19T00:33:17.658Z,3.39
2019-01-19T00:34:17.644Z,3.4
2019-01-19T00:35:22.746Z,3.28
2019-01-19T00:36:17.617Z,3.21
2019-01-19T00:37:17.597Z,3.26
2019-01-19T00:38:17.582Z,3.2
2019-01-19T00:39:17.565Z,3.18
2019-01-19T00:40:17.554Z,3.23
2019-01-19T00:41:17.541Z,3.26
2019-01-19T00:42:17.519Z,3.26
2019-01-19T00:43:17.503Z,3.17
2019-01-19T00:44:17.495Z,3.23
2019-01-19T00:45:17.504Z,3.23
2019-01-19T00:46:17.457Z,3.28
2019-01-19T00:47:17.495Z,3.21
2019-01-19T00:48:17.680Z,3.28
2019-01-19T00:49:17.410Z,3.31
2019-01-19T00:50:17.398Z,3.28
2019-01-19T00:51:17.377Z,3.24
2019-01-19T00:52:17.366Z,3.39
2019-01-19T00:53:17.347Z,3.32
2019-01-19T00:54:17.330Z,3.32
2019-01-19T00:55:17.314Z,3.39
2019-01-19T00:56:17.301Z,3.36
2019-01-19T00:57:17.286Z,3.43
2019-01-19T00:58:17.264Z,3.43
2019-01-19T00:59:17.257Z,3.4
2019-01-19T01:00:17.238Z,3.48
2019-01-19T01:01:17.221Z,3.52
2019-01-19T01:02:17.211Z,3.52
2019-01-19T01:03:17.190Z,3.55
2019-01-19T01:04:17.179Z,3.62
2019-01-19T01:05:17.158Z,3.69
2019-01-19T01:06:17.148Z,3.6
2019-01-19T01:07:17.130Z,3.73
2019-01-19T01:08:17.158Z,3.73
2019-01-19T01:09:16.855Z,3.76
2019-01-19T01:10:17.077Z,3.83
2019-01-19T01:11:17.119Z,3.8
2019-01-19T01:12:17.049Z,3.76
2019-01-19T01:13:17.031Z,3.75
2019-01-19T01:14:17.022Z,3.86
2019-01-19T01:15:17.004Z,3.88
2019-01-19T01:16:16.985Z,3.96
2019-01-19T01:17:16.971Z,3.93
2019-01-19T01:18:16.956Z,3.94
2019-01-19T01:19:17.192Z,3.9
2019-01-19T01:20:16.930Z,3.91
2019-01-19T01:21:16.911Z,3.96
2019-01-19T01:22:16.897Z,3.91
2019-01-19T01:23:16.876Z,3.94
2019-01-19T01:24:16.863Z,3.94
2019-01-19T01:25:16.850Z,3.93
2019-01-19T01:26:16.833Z,3.96
2019-01-19T01:27:16.815Z,3.91
2019-01-19T01:28:16.800Z,3.98
2019-01-19T01:29:16.789Z,3.91
2019-01-19T01:30:16.770Z,4.04
2019-01-19T01:31:16.758Z,4
2019-01-19T01:32:16.744Z,4.04
2019-01-19T01:33:16.726Z,4.06
2019-01-19T01:34:16.708Z,4.06
2019-01-19T01:35:16.695Z,4.02
2019-01-19T01:36:16.685Z,4.06
2019-01-19T01:37:16.664Z,4.04
2019-01-19T01:38:16.649Z,4.06
2019-01-19T01:39:16.638Z,4.08
2019-01-19T01:40:16.620Z,4.04
2019-01-19T01:41:16.607Z,4.09
2019-01-19T01:42:16.591Z,4.02
2019-01-19T01:43:16.575Z,3.98
2019-01-19T01:44:16.556Z,4.05
2019-01-19T01:45:16.551Z,4.04
2019-01-19T01:46:16.549Z,4
2019-01-19T01:47:16.575Z,3.9
2019-01-19T01:48:16.496Z,3.94
2019-01-19T01:49:16.480Z,3.91
2019-01-19T01:50:16.724Z,3.88
2019-01-19T01:51:16.459Z,3.86
2019-01-19T01:52:16.432Z,3.84
2019-01-19T01:53:16.427Z,3.75
2019-01-19T01:54:16.409Z,3.78
2019-01-19T01:55:16.389Z,3.73
2019-01-19T01:56:16.374Z,3.76
2019-01-19T01:57:16.360Z,3.69
2019-01-19T01:58:16.342Z,3.72
2019-01-19T01:59:16.327Z,3.72
2019-01-19T02:00:16.316Z,3.73
2019-01-19T02:01:16.598Z,3.73
2019-01-19T02:02:16.286Z,3.7
2019-01-19T02:03:16.267Z,3.72
2019-01-19T02:04:16.260Z,3.75
2019-01-19T02:05:16.235Z,3.73
2019-01-19T02:06:16.221Z,3.78
2019-01-19T02:07:16.202Z,3.8
2019-01-19T02:08:16.187Z,3.75
2019-01-19T02:09:16.178Z,3.73
2019-01-19T02:10:16.182Z,3.9
2019-01-19T02:11:16.152Z,3.91
2019-01-19T02:12:16.131Z,3.97
2019-01-19T02:13:16.112Z,4
2019-01-19T02:14:16.103Z,3.93
2019-01-19T02:15:16.080Z,3.93
2019-01-19T02:16:16.074Z,3.93
2019-01-19T02:17:16.052Z,3.96
2019-01-19T02:18:16.038Z,3.96
2019-01-19T02:19:16.022Z,4.08
2019-01-19T02:20:16.008Z,4
2019-01-19T02:21:15.992Z,4.06
2019-01-19T02:22:15.973Z,4.05
2019-01-19T02:23:15.958Z,4.02
2019-01-19T02:24:15.943Z,4.08
2019-01-19T02:25:15.930Z,3.98
2019-01-19T02:26:15.914Z,4.06
2019-01-19T02:27:15.901Z,3.96
2019-01-19T02:28:15.890Z,3.9
2019-01-19T02:29:15.873Z,3.96
2019-01-19T02:30:15.857Z,3.91
2019-01-19T02:31:15.845Z,3.94
2019-01-19T02:32:15.828Z,4
2019-01-19T02:33:15.818Z,3.96
2019-01-19T02:34:15.794Z,3.98
2019-01-19T02:35:15.778Z,3.98
2019-01-19T02:36:15.761Z,4.05
2019-01-19T02:37:15.754Z,4.04
2019-01-19T02:38:15.730Z,4.05
2019-01-19T02:39:15.716Z,4.02
2019-01-19T02:40:15.699Z,3.98
2019-01-19T02:41:15.695Z,3.97
2019-01-19T02:42:15.668Z,4.02
2019-01-19T02:43:15.659Z,4.06
2019-01-19T02:44:15.639Z,4.08
2019-01-19T02:45:15.643Z,4.02
2019-01-19T02:46:15.706Z,4.06
2019-01-19T02:47:15.609Z,3.97
2019-01-19T02:48:15.576Z,4.04
2019-01-19T02:49:15.563Z,4.05
2019-01-19T02:50:15.549Z,4.04
2019-01-19T02:51:15.537Z,4.06
2019-01-19T02:52:15.519Z,4.05
2019-01-19T02:53:15.514Z,4.05
2019-01-19T02:54:15.505Z,4.04
2019-01-19T02:55:15.482Z,4.06
2019-01-19T02:56:15.457Z,4.02
2019-01-19T02:57:15.444Z,4.06
2019-01-19T02:58:15.443Z,4.04
2019-01-19T02:59:15.414Z,4.02
2019-01-19T03:00:15.398Z,4.09
2019-01-19T03:01:15.385Z,4
2019-01-19T03:02:15.363Z,4
2019-01-19T03:03:15.350Z,3.94
2019-01-19T03:04:15.334Z,3.94
2019-01-19T03:05:15.333Z,3.96
2019-01-19T03:06:15.309Z,3.93
2019-01-19T03:07:15.293Z,3.96
2019-01-19T03:08:15.271Z,3.93
2019-01-19T03:09:15.263Z,3.88
2019-01-19T03:10:15.239Z,3.96
2019-01-19T03:11:15.231Z,3.91
2019-01-19T03:12:15.211Z,3.91
2019-01-19T03:13:15.203Z,3.86
2019-01-19T03:14:15.182Z,3.87
2019-01-19T03:15:15.167Z,3.8
2019-01-19T03:16:15.152Z,3.76
2019-01-19T03:17:15.166Z,3.72
2019-01-19T03:18:15.118Z,3.72
2019-01-19T03:19:15.103Z,3.72
2019-01-19T03:20:15.087Z,3.73
2019-01-19T03:21:15.075Z,3.73
2019-01-19T03:22:14.817Z,3.65
2019-01-19T03:23:15.046Z,3.65
2019-01-19T03:24:15.279Z,3.66
2019-01-19T03:25:15.012Z,3.6
2019-01-19T03:26:15.000Z,3.62
2019-01-19T03:27:14.980Z,3.62
2019-01-19T03:28:14.966Z,3.5
2019-01-19T03:29:14.950Z,3.6
2019-01-19T03:30:14.945Z,3.47
2019-01-19T03:31:14.970Z,3.48
2019-01-19T03:32:14.909Z,3.42
2019-01-19T03:33:14.898Z,3.39
2019-01-19T03:34:14.872Z,3.35
2019-01-19T03:35:14.868Z,3.24
2019-01-19T03:36:14.844Z,3.24
2019-01-19T03:37:14.824Z,3.31
2019-01-19T03:38:14.815Z,3.17
2019-01-19T03:39:14.813Z,3.21
2019-01-19T03:40:14.785Z,3.21
2019-01-19T03:41:14.766Z,3.2
2019-01-19T03:42:14.757Z,3.14
2019-01-19T03:43:14.744Z,3.23
2019-01-19T03:44:14.720Z,3.08
2019-01-19T03:45:14.700Z,3.08
2019-01-19T03:46:14.711Z,3.15
2019-01-19T03:47:14.666Z,3.14
2019-01-19T03:48:14.655Z,3.06
2019-01-19T03:49:14.636Z,3.1
2019-01-19T03:50:14.630Z,2.96
2019-01-19T03:51:14.622Z,3.03
2019-01-19T03:52:14.595Z,2.95
2019-01-19T03:53:14.577Z,2.87
2019-01-19T03:54:14.565Z,2.92
2019-01-19T03:55:14.792Z,2.84
2019-01-19T03:56:14.526Z,2.82
2019-01-19T03:57:14.510Z,2.72
2019-01-19T03:58:14.500Z,2.71
2019-01-19T03:59:14.488Z,2.61
2019-01-19T04:00:14.463Z,2.59
2019-01-19T04:01:14.504Z,2.54
2019-01-19T04:02:14.444Z,2.39
2019-01-19T04:03:14.418Z,2.34
2019-01-19T04:04:14.397Z,2.36
2019-01-19T04:05:14.388Z,2.16
2019-01-19T04:06:17.682Z,2.16
2019-01-19T04:07:14.356Z,2.12
2019-01-19T04:08:14.341Z,2.05
2019-01-19T04:09:14.315Z,2.02
2019-01-19T04:10:14.316Z,1.98
2019-01-19T04:11:14.286Z,1.87
2019-01-19T04:12:14.269Z,1.91
2019-01-19T04:13:14.257Z,1.8
2019-01-19T04:14:14.237Z,1.81
2019-01-19T04:15:14.223Z,1.79
2019-01-19T04:16:14.233Z,1.81
2019-01-19T04:17:14.195Z,1.76
2019-01-19T04:18:14.177Z,1.69
2019-01-19T04:19:14.150Z,1.62
2019-01-19T04:20:15.577Z,1.66
2019-01-19T04:21:14.121Z,1.58
2019-01-19T04:22:14.109Z,1.55
2019-01-19T04:23:14.087Z,1.48
2019-01-19T04:24:14.071Z,1.55
2019-01-19T04:25:14.052Z,1.48
2019-01-19T04:26:14.041Z,1.44
2019-01-19T04:27:14.030Z,1.41
2019-01-19T04:28:14.003Z,1.45
2019-01-19T04:29:13.989Z,1.41
2019-01-19T04:30:14.058Z,1.36
2019-01-19T04:31:13.717Z,1.4
2019-01-19T04:32:13.942Z,1.36
2019-01-19T04:33:13.920Z,1.37
2019-01-19T04:34:13.903Z,1.34
2019-01-19T04:35:13.885Z,1.37
2019-01-19T04:36:21.441Z,1.34
2019-01-19T04:37:13.935Z,1.24
2019-01-19T04:38:13.899Z,1.27
2019-01-19T04:39:13.816Z,1.24
2019-01-19T04:40:13.798Z,1.3
2019-01-19T04:41:13.791Z,1.29
2019-01-19T04:42:13.773Z,1.22
2019-01-19T04:43:13.749Z,1.18
2019-01-19T04:44:13.734Z,1.16
2019-01-19T04:45:13.720Z,1.22
2019-01-19T04:46:13.713Z,1.22
2019-01-19T04:47:13.682Z,1.26
2019-01-19T04:48:13.660Z,1.18
2019-01-19T04:49:13.704Z,1.23
2019-01-19T04:50:13.628Z,1.3
2019-01-19T04:51:13.617Z,1.29
2019-01-19T04:52:13.601Z,1.3
2019-01-19T04:53:13.581Z,1.37
2019-01-19T04:54:13.564Z,1.24
2019-01-19T04:55:13.551Z,1.33
2019-01-19T04:56:13.526Z,1.37
2019-01-19T04:57:13.760Z,1.33
2019-01-19T04:58:13.493Z,1.44
2019-01-19T04:59:13.488Z,1.41
2019-01-19T05:00:13.460Z,1.42
2019-01-19T05:01:13.449Z,1.47
2019-01-19T05:02:13.428Z,1.54
2019-01-19T05:03:13.423Z,1.58
2019-01-19T05:04:13.402Z,1.65
2019-01-19T05:05:13.378Z,1.62
2019-01-19T05:06:17.330Z,1.73
2019-01-19T05:07:13.341Z,1.68
2019-01-19T05:08:13.322Z,1.77
2019-01-19T05:09:13.304Z,1.73
2019-01-19T05:10:13.286Z,1.7
2019-01-19T05:11:13.270Z,1.81
2019-01-19T05:12:13.264Z,1.79
2019-01-19T05:13:13.238Z,1.81
2019-01-19T05:14:13.227Z,1.83
2019-01-19T05:15:12.958Z,1.88
2019-01-19T05:16:13.188Z,1.9
2019-01-19T05:17:13.170Z,1.98
2019-01-19T05:18:13.159Z,2.02
2019-01-19T05:19:13.181Z,2.05
2019-01-19T05:20:13.122Z,2.09
2019-01-19T05:21:13.103Z,2.02
2019-01-19T05:22:13.087Z,2.1
2019-01-19T05:23:13.240Z,2.12
2019-01-19T05:24:13.069Z,2.16
2019-01-19T05:25:13.041Z,2.09
2019-01-19T05:26:13.024Z,2.23
2019-01-19T05:27:13.003Z,2.25
2019-01-19T05:28:12.986Z,2.34
2019-01-19T05:29:12.968Z,2.35
2019-01-19T05:30:12.952Z,2.28
2019-01-19T05:31:12.941Z,2.39
2019-01-19T05:32:13.005Z,2.42
2019-01-19T05:33:12.901Z,2.42
2019-01-19T05:34:12.914Z,2.42
2019-01-19T05:35:12.873Z,2.41
2019-01-19T05:36:12.860Z,2.49
2019-01-19T05:37:12.839Z,2.56
2019-01-19T05:38:12.823Z,2.56
2019-01-19T05:39:12.807Z,2.46
2019-01-19T05:40:12.797Z,2.53
2019-01-19T05:41:12.772Z,2.57
2019-01-19T05:42:12.754Z,2.53
2019-01-19T05:43:12.743Z,2.53
2019-01-19T05:44:12.725Z,2.54
2019-01-19T05:45:12.719Z,2.57
2019-01-19T05:46:12.696Z,2.53
2019-01-19T05:47:12.673Z,2.49
2019-01-19T05:48:12.675Z,2.61
2019-01-19T05:49:12.642Z,2.63
2019-01-19T05:50:12.624Z,2.61
2019-01-19T05:51:12.612Z,2.49
2019-01-19T05:52:12.600Z,2.57
2019-01-19T05:53:12.641Z,2.6
2019-01-19T05:54:12.562Z,2.64
2019-01-19T05:55:12.548Z,2.59
2019-01-19T05:56:12.531Z,2.72
2019-01-19T05:57:12.513Z,2.69
2019-01-19T05:58:12.500Z,2.78
2019-01-19T05:59:12.482Z,2.75
2019-01-19T06:00:12.468Z,2.78
2019-01-19T06:01:12.466Z,2.74
2019-01-19T06:02:12.435Z,2.85
2019-01-19T06:03:12.420Z,2.77
2019-01-19T06:04:12.399Z,2.92
2019-01-19T06:05:12.384Z,2.85
2019-01-19T06:06:12.373Z,2.85
2019-01-19T06:07:12.351Z,2.85
2019-01-19T06:08:12.338Z,2.96
2019-01-19T06:09:12.325Z,2.9
2019-01-19T06:10:12.311Z,2.89
2019-01-19T06:11:12.299Z,2.85
2019-01-19T06:12:12.271Z,2.92
2019-01-19T06:13:12.256Z,2.82
2019-01-19T06:14:12.247Z,2.82
2019-01-19T06:15:12.220Z,2.77
2019-01-19T06:16:12.227Z,2.64
2019-01-19T06:17:12.190Z,2.61
2019-01-19T06:18:12.215Z,2.53
2019-01-19T06:19:12.164Z,2.52
2019-01-19T06:20:12.144Z,2.45
2019-01-19T06:21:12.125Z,2.31
2019-01-19T06:22:12.136Z,2.27
2019-01-19T06:23:12.102Z,2.16
2019-01-19T06:24:12.082Z,2.1
2019-01-19T06:25:12.157Z,2.12
2019-01-19T06:26:12.045Z,2.05
2019-01-19T06:27:12.056Z,2.1
2019-01-19T06:28:12.009Z,1.98
2019-01-19T06:29:11.996Z,1.91
2019-01-19T06:30:11.985Z,1.81
2019-01-19T06:31:12.216Z,1.77
2019-01-19T06:32:11.964Z,1.77
2019-01-19T06:33:11.930Z,1.73
2019-01-19T06:34:11.910Z,1.66
2019-01-19T06:35:11.916Z,1.58
2019-01-19T06:36:11.902Z,1.59
2019-01-19T06:37:11.619Z,1.52
2019-01-19T06:38:11.855Z,1.48
2019-01-19T06:39:11.835Z,1.41
2019-01-19T06:40:11.826Z,1.45
2019-01-19T06:41:11.797Z,1.45
2019-01-19T06:42:11.777Z,1.34
2019-01-19T06:43:11.771Z,1.32
2019-01-19T06:44:11.744Z,1.36
2019-01-19T06:45:11.728Z,1.32
2019-01-19T06:46:11.718Z,1.32
2019-01-19T06:47:11.694Z,1.44
2019-01-19T06:48:11.679Z,1.42
2019-01-19T06:49:11.661Z,1.36
2019-01-19T06:50:11.647Z,1.36
2019-01-19T06:51:11.627Z,1.47
2019-01-19T06:52:11.609Z,1.5
2019-01-19T06:53:11.604Z,1.44
2019-01-19T06:54:11.583Z,1.6
2019-01-19T06:55:11.564Z,1.65
2019-01-19T06:56:11.542Z,1.76
2019-01-19T06:57:11.526Z,1.77
2019-01-19T06:58:11.513Z,1.84
2019-01-19T06:59:17.281Z,1.86
2019-01-19T07:00:11.476Z,1.91
2019-01-19T07:01:11.458Z,1.99
2019-01-19T07:02:11.696Z,2.07
2019-01-19T07:03:11.432Z,2.16
2019-01-19T07:04:11.410Z,2.18
2019-01-19T07:05:11.394Z,2.14
2019-01-19T07:06:11.374Z,2.27
2019-01-19T07:07:11.360Z,2.38
2019-01-19T07:08:11.345Z,2.3
2019-01-19T07:09:11.326Z,2.39
2019-01-19T07:10:11.306Z,2.42
2019-01-19T07:11:11.288Z,2.53
2019-01-19T07:12:11.274Z,2.52
2019-01-19T07:13:11.261Z,2.53
2019-01-19T07:14:11.246Z,2.59
2019-01-19T07:15:11.223Z,2.69
2019-01-19T07:16:11.211Z,2.69
2019-01-19T07:17:11.198Z,2.71
2019-01-19T07:18:11.187Z,2.71
2019-01-19T07:19:11.158Z,2.71
2019-01-19T07:20:11.143Z,2.71
2019-01-19T07:21:11.124Z,2.75
2019-01-19T07:22:11.110Z,2.87
2019-01-19T07:23:11.092Z,2.85
2019-01-19T07:24:11.077Z,2.85
2019-01-19T07:25:11.128Z,2.95
2019-01-19T07:26:11.046Z,2.93
2019-01-19T07:27:11.061Z,2.89
2019-01-19T07:28:11.010Z,2.97
2019-01-19T07:29:11.002Z,2.89
2019-01-19T07:30:10.985Z,2.9
2019-01-19T07:31:10.961Z,2.97
2019-01-19T07:32:10.948Z,2.85
2019-01-19T07:33:11.229Z,2.81
2019-01-19T07:34:10.920Z,2.87
2019-01-19T07:35:10.897Z,2.9
2019-01-19T07:36:10.882Z,2.69
2019-01-19T07:37:14.716Z,2.64
2019-01-19T07:38:10.850Z,2.75
2019-01-19T07:39:10.833Z,2.74
2019-01-19T07:40:10.818Z,2.72
2019-01-19T07:41:10.803Z,2.64
2019-01-19T07:42:10.785Z,2.64
2019-01-19T07:43:10.771Z,2.64
2019-01-19T07:44:10.799Z,2.63
2019-01-19T07:45:10.743Z,2.6
2019-01-19T07:46:10.719Z,2.57
2019-01-19T07:47:10.705Z,2.59
2019-01-19T07:48:10.688Z,2.53
2019-01-19T07:49:10.672Z,2.48
2019-01-19T07:50:10.663Z,2.57
2019-01-19T07:51:11.517Z,2.53
2019-01-19T07:52:10.629Z,2.39
2019-01-19T07:53:10.641Z,2.46
2019-01-19T07:54:10.977Z,2.41
2019-01-19T07:55:10.582Z,2.41
2019-01-19T07:56:10.559Z,2.42
2019-01-19T07:57:10.546Z,2.39
2019-01-19T07:58:10.528Z,2.39
2019-01-19T07:59:10.512Z,2.38
2019-01-19T08:00:10.500Z,2.3
2019-01-19T08:01:10.477Z,2.35
2019-01-19T08:02:10.464Z,2.3
2019-01-19T08:03:10.446Z,2.27
2019-01-19T08:04:10.680Z,2.38
2019-01-19T08:05:11.127Z,2.35
2019-01-19T08:06:10.399Z,2.31
2019-01-19T08:07:17.077Z,2.35
2019-01-19T08:08:10.368Z,2.28
2019-01-19T08:09:10.363Z,2.35
2019-01-19T08:10:10.333Z,2.31
2019-01-19T08:11:11.324Z,2.34
2019-01-19T08:12:10.321Z,2.34
2019-01-19T08:13:10.288Z,2.38
2019-01-19T08:14:10.268Z,2.35
2019-01-19T08:15:10.249Z,2.36
2019-01-19T08:16:10.236Z,2.35
2019-01-19T08:17:11.870Z,2.38
2019-01-19T08:18:10.205Z,2.38
2019-01-19T08:19:10.188Z,2.36
2019-01-19T08:20:10.169Z,2.39
2019-01-19T08:21:10.157Z,2.48
2019-01-19T08:22:10.137Z,2.48
2019-01-19T08:23:10.122Z,2.42
2019-01-19T08:24:10.110Z,2.49
2019-01-19T08:25:10.092Z,2.59
2019-01-19T08:26:10.077Z,2.52
2019-01-19T08:27:10.063Z,2.54
2019-01-19T08:28:10.045Z,2.63
2019-01-19T08:29:10.025Z,2.57
2019-01-19T08:30:10.016Z,2.52
2019-01-19T08:31:10.004Z,2.67
2019-01-19T08:32:09.976Z,2.6
2019-01-19T08:33:09.963Z,2.6
2019-01-19T08:34:09.946Z,2.72
2019-01-19T08:35:09.931Z,2.66
2019-01-19T08:36:09.913Z,2.69
2019-01-19T08:37:09.900Z,2.64
2019-01-19T08:38:09.885Z,2.77
2019-01-19T08:39:09.867Z,2.82
2019-01-19T08:40:09.859Z,2.74
2019-01-19T08:41:09.833Z,2.84
2019-01-19T08:42:09.821Z,2.93
2019-01-19T08:43:09.801Z,2.9
2019-01-19T08:44:09.792Z,2.85
2019-01-19T08:45:09.768Z,2.93
2019-01-19T08:46:09.757Z,3.02
2019-01-19T08:47:09.742Z,3
2019-01-19T08:48:09.723Z,3.03
2019-01-19T08:49:09.710Z,3.13
2019-01-19T08:50:09.700Z,3.13
2019-01-19T08:51:09.977Z,3.1
2019-01-19T08:52:09.659Z,3.2
2019-01-19T08:53:09.643Z,3.23
2019-01-19T08:54:09.627Z,3.2
2019-01-19T08:55:09.626Z,3.28
2019-01-19T08:56:09.598Z,3.24
2019-01-19T08:57:09.588Z,3.32
2019-01-19T08:58:09.564Z,3.31
2019-01-19T08:59:09.553Z,3.24
2019-01-19T09:00:09.541Z,3.35
2019-01-19T09:01:09.520Z,3.42
2019-01-19T09:02:09.577Z,3.39
2019-01-19T09:03:09.489Z,3.5
2019-01-19T09:04:09.473Z,3.4
2019-01-19T09:05:09.461Z,3.45
2019-01-19T09:06:09.444Z,3.52
2019-01-19T09:07:09.428Z,3.54
2019-01-19T09:08:09.416Z,3.62
2019-01-19T09:09:09.398Z,3.57
2019-01-19T09:10:09.382Z,3.68
2019-01-19T09:11:09.372Z,3.61
2019-01-19T09:12:09.352Z,3.73
2019-01-19T09:13:09.342Z,3.79
2019-01-19T09:14:09.324Z,3.8
2019-01-19T09:15:09.305Z,3.87
2019-01-19T09:16:09.290Z,3.91
2019-01-19T09:17:09.529Z,3.86
2019-01-19T09:18:09.263Z,3.88
2019-01-19T09:19:09.250Z,3.93
2019-01-19T09:20:09.230Z,3.94
2019-01-19T09:21:09.216Z,3.98
2019-01-19T09:22:09.204Z,3.9
2019-01-19T09:23:09.192Z,3.88
2019-01-19T09:24:09.237Z,3.98
2019-01-19T09:25:09.159Z,3.93
2019-01-19T09:26:09.517Z,4.02
2019-01-19T09:27:09.128Z,4.06
2019-01-19T09:28:09.111Z,4.14
2019-01-19T09:29:09.102Z,4.04
2019-01-19T09:30:09.085Z,4.06
2019-01-19T09:31:09.066Z,4.08
2019-01-19T09:32:09.053Z,4.15
2019-01-19T09:33:08.792Z,4.09
2019-01-19T09:34:09.025Z,4.05
2019-01-19T09:35:09.026Z,4.11
2019-01-19T09:36:08.991Z,4.16
2019-01-19T09:37:08.981Z,4.15
2019-01-19T09:38:08.964Z,4.26
2019-01-19T09:39:08.949Z,4.27
2019-01-19T09:40:08.934Z,4.29
2019-01-19T09:41:08.924Z,4.4
2019-01-19T09:42:08.905Z,4.37
2019-01-19T09:43:08.893Z,4.48
2019-01-19T09:44:08.879Z,4.51
2019-01-19T09:45:08.860Z,4.51
2019-01-19T09:46:08.851Z,4.66
2019-01-19T09:47:08.832Z,4.63
2019-01-19T09:48:08.817Z,4.67
2019-01-19T09:49:08.803Z,4.54
2019-01-19T09:50:08.795Z,4.54
2019-01-19T09:51:08.778Z,4.6
2019-01-19T09:52:08.758Z,4.6
2019-01-19T09:53:08.743Z,4.55
2019-01-19T09:54:08.730Z,4.5
2019-01-19T09:55:08.714Z,4.6
2019-01-19T09:56:08.699Z,4.51
2019-01-19T09:57:08.687Z,4.66
2019-01-19T09:58:08.671Z,4.62
2019-01-19T09:59:08.654Z,4.65
2019-01-19T10:00:08.642Z,4.6
2019-01-19T10:01:08.628Z,4.66
2019-01-19T10:02:08.612Z,4.6
2019-01-19T10:03:08.601Z,4.66
2019-01-19T10:04:08.584Z,4.62
2019-01-19T10:05:08.569Z,4.65
2019-01-19T10:06:08.554Z,4.69
2019-01-19T10:07:08.545Z,4.63
2019-01-19T10:08:08.524Z,4.52
2019-01-19T10:09:08.516Z,4.65
2019-01-19T10:10:08.499Z,4.6
2019-01-19T10:11:08.482Z,4.52
2019-01-19T10:12:08.467Z,4.54
2019-01-19T10:13:08.460Z,4.55
2019-01-19T10:14:08.442Z,4.52
2019-01-19T10:15:08.425Z,4.51
2019-01-19T10:16:08.409Z,4.5
2019-01-19T10:17:08.392Z,4.47
2019-01-19T10:18:08.417Z,4.47
2019-01-19T10:19:08.366Z,4.51
2019-01-19T10:20:08.357Z,4.51
2019-01-19T10:21:08.339Z,4.5
2019-01-19T10:22:08.331Z,4.54
2019-01-19T10:23:08.311Z,4.51
2019-01-19T10:24:08.293Z,4.52
2019-01-19T10:25:08.280Z,4.6
2019-01-19T10:26:08.263Z,4.58
2019-01-19T10:27:08.251Z,4.62
2019-01-19T10:28:08.238Z,4.58
2019-01-19T10:29:08.225Z,4.59
2019-01-19T10:30:08.213Z,4.59
2019-01-19T10:31:08.194Z,4.62
2019-01-19T10:32:08.180Z,4.63
2019-01-19T10:33:08.164Z,4.67
2019-01-19T10:34:08.149Z,4.62
2019-01-19T10:35:08.136Z,4.66
2019-01-19T10:36:08.120Z,4.62
2019-01-19T10:37:08.117Z,4.65
2019-01-19T10:38:08.091Z,4.6
2019-01-19T10:39:08.078Z,4.62
2019-01-19T10:40:08.060Z,4.66
2019-01-19T10:41:07.810Z,4.67
2019-01-19T10:42:08.096Z,4.72
2019-01-19T10:43:08.018Z,4.62
2019-01-19T10:44:08.002Z,4.62
2019-01-19T10:45:08.011Z,4.65
2019-01-19T10:46:07.973Z,4.69
2019-01-19T10:47:07.963Z,4.67
2019-01-19T10:48:07.945Z,4.69
2019-01-19T10:49:07.929Z,4.69
2019-01-19T10:50:07.920Z,4.69
2019-01-19T10:51:07.900Z,4.66
2019-01-19T10:52:07.891Z,4.73
2019-01-19T10:53:07.877Z,4.78
2019-01-19T10:54:07.877Z,4.69
2019-01-19T10:55:07.843Z,4.73
2019-01-19T10:56:07.835Z,4.67
2019-01-19T10:57:07.815Z,4.69
2019-01-19T10:58:07.800Z,4.67
2019-01-19T10:59:07.791Z,4.7
2019-01-19T11:00:07.841Z,4.72
2019-01-19T11:01:07.766Z,4.78
2019-01-19T11:02:07.747Z,4.85
2019-01-19T11:03:07.742Z,4.78
2019-01-19T11:04:07.712Z,4.78
2019-01-19T11:05:07.702Z,4.88
2019-01-19T11:06:07.685Z,4.89
2019-01-19T11:07:07.678Z,4.92
2019-01-19T11:08:08.542Z,4.91
2019-01-19T11:09:07.648Z,4.97
2019-01-19T11:10:07.633Z,4.91
2019-01-19T11:11:07.616Z,5.02
2019-01-19T11:12:07.600Z,5
2019-01-19T11:13:07.592Z,5.04
2019-01-19T11:14:07.573Z,5.03
2019-01-19T11:15:07.565Z,5.06
2019-01-19T11:16:07.544Z,5
2019-01-19T11:17:07.529Z,5.04
2019-01-19T11:18:07.524Z,5.09
2019-01-19T11:19:07.501Z,5.04
2019-01-19T11:20:07.483Z,5.09
2019-01-19T11:21:07.474Z,5.04
2019-01-19T11:22:07.479Z,5.13
2019-01-19T11:23:07.452Z,5.17
2019-01-19T11:24:07.445Z,5.15
2019-01-19T11:25:07.415Z,5.1
2019-01-19T11:26:07.398Z,5.09
2019-01-19T11:27:07.384Z,5.21
2019-01-19T11:28:07.371Z,5.1
2019-01-19T11:29:07.368Z,5.1
2019-01-19T11:30:07.344Z,5.2
2019-01-19T11:31:07.332Z,5.15
2019-01-19T11:32:07.320Z,5.21
2019-01-19T11:33:07.302Z,5.22
2019-01-19T11:34:07.694Z,5.1
2019-01-19T11:35:07.274Z,5.18
2019-01-19T11:36:07.264Z,5.15
2019-01-19T11:37:07.246Z,5.17
2019-01-19T11:38:20.013Z,5.2
2019-01-19T11:39:07.216Z,5.25
2019-01-19T11:40:07.203Z,5.24
2019-01-19T11:41:07.190Z,5.25
2019-01-19T11:42:07.173Z,5.31
2019-01-19T11:43:07.162Z,5.22
2019-01-19T11:44:07.145Z,5.27
2019-01-19T11:45:07.140Z,5.28
2019-01-19T11:46:07.125Z,5.36
2019-01-19T11:47:06.869Z,5.33
2019-01-19T11:48:07.090Z,5.33
2019-01-19T11:49:07.076Z,5.36
2019-01-19T11:50:07.059Z,5.4
2019-01-19T11:51:07.047Z,5.45
2019-01-19T11:52:07.032Z,5.42
2019-01-19T11:53:07.021Z,5.48
2019-01-19T11:54:07.008Z,5.42
2019-01-19T11:55:06.993Z,5.45
2019-01-19T11:56:14.505Z,5.42
2019-01-19T11:57:06.963Z,5.42
2019-01-19T11:58:06.953Z,5.46
2019-01-19T11:59:06.934Z,5.53
2019-01-19T12:00:06.921Z,5.57
2019-01-19T12:01:07.280Z,5.48
2019-01-19T12:02:06.897Z,5.45
2019-01-19T12:03:06.882Z,5.48
2019-01-19T12:04:06.866Z,5.58
2019-01-19T12:05:06.850Z,5.49
2019-01-19T12:06:06.841Z,5.56
2019-01-19T12:07:06.836Z,5.54
2019-01-19T12:08:06.810Z,5.48
2019-01-19T12:09:06.797Z,5.46
2019-01-19T12:10:06.783Z,5.4
2019-01-19T12:11:06.772Z,5.43
2019-01-19T12:12:06.753Z,5.46
2019-01-19T12:13:06.744Z,5.43
2019-01-19T12:14:06.726Z,5.45
2019-01-19T12:15:06.717Z,5.39
2019-01-19T12:16:06.701Z,5.39
2019-01-19T12:17:06.684Z,5.39
2019-01-19T12:18:06.671Z,5.38
2019-01-19T12:19:06.657Z,5.39
2019-01-19T12:20:06.644Z,5.43
2019-01-19T12:21:06.625Z,5.45
2019-01-19T12:22:06.373Z,5.42
2019-01-19T12:23:06.604Z,5.42
2019-01-19T12:24:08.026Z,5.4
2019-01-19T12:25:06.591Z,5.46
2019-01-19T12:26:06.562Z,5.51
2019-01-19T12:27:06.549Z,5.54
2019-01-19T12:28:06.531Z,5.48
2019-01-19T12:29:06.525Z,5.54
2019-01-19T12:30:06.506Z,5.54
2019-01-19T12:31:06.489Z,5.43
2019-01-19T12:32:06.476Z,5.54
2019-01-19T12:33:06.460Z,5.45
2019-01-19T12:34:06.446Z,5.54
2019-01-19T12:35:06.440Z,5.53
2019-01-19T12:36:06.419Z,5.48
2019-01-19T12:37:06.409Z,5.46
2019-01-19T12:38:06.398Z,5.56
2019-01-19T12:39:06.381Z,5.51
2019-01-19T12:40:06.377Z,5.45
2019-01-19T12:41:06.349Z,5.38
2019-01-19T12:42:06.348Z,5.49
2019-01-19T12:43:06.322Z,5.39
2019-01-19T12:44:06.304Z,5.56
2019-01-19T12:45:06.294Z,5.53
2019-01-19T12:46:06.278Z,5.53
2019-01-19T12:47:06.267Z,5.45
2019-01-19T12:48:06.012Z,5.51
2019-01-19T12:49:06.237Z,5.57
2019-01-19T12:50:06.228Z,5.54
2019-01-19T12:51:06.208Z,5.57
2019-01-19T12:52:06.218Z,5.42
2019-01-19T12:53:06.185Z,5.43
2019-01-19T12:54:06.169Z,5.4
2019-01-19T12:55:06.155Z,5.38
2019-01-19T12:56:06.140Z,5.46
2019-01-19T12:57:06.124Z,5.54
2019-01-19T12:58:06.124Z,5.42
2019-01-19T12:59:06.100Z,5.51
2019-01-19T13:00:06.087Z,5.45
2019-01-19T13:01:06.067Z,5.42
2019-01-19T13:02:06.056Z,5.45
2019-01-19T13:03:06.098Z,5.43
2019-01-19T13:04:06.031Z,5.42
2019-01-19T13:05:06.020Z,5.39
2019-01-19T13:06:06.000Z,5.4
2019-01-19T13:07:05.991Z,5.38
2019-01-19T13:08:05.982Z,5.43
2019-01-19T13:09:12.314Z,5.39
2019-01-19T13:10:05.945Z,5.36
2019-01-19T13:11:05.931Z,5.38
2019-01-19T13:12:05.925Z,5.38
2019-01-19T13:13:05.902Z,5.39
2019-01-19T13:14:08.157Z,5.38
2019-01-19T13:15:05.873Z,5.38
2019-01-19T13:16:05.614Z,5.4
2019-01-19T13:17:05.611Z,5.33
2019-01-19T13:18:05.832Z,5.38
2019-01-19T13:19:05.819Z,5.33
2019-01-19T13:20:05.812Z,5.24
2019-01-19T13:21:05.794Z,5.28
2019-01-19T13:22:05.783Z,5.27